Terminal Aerodrome Forecast
Issued by NWS Sterling, VA

Current Version | Previous Version | Graphics & Text | Print | Product List | Glossary On
Versions: 1 2 3 4 5 6 7 8 9 10 11 12 13 14 15 16 17 18 19 20 21 22
000
FTUS41 KLWX 220500
TAFDCA
TAF
KDCA 220531Z 2206/2306 00000KT 2SM BR OVC004
     FM220700 00000KT 1SM BR OVC003
     FM220900 VRB03KT 1/2SM FG BKN001
     FM221200 VRB03KT 1SM BR BKN003
     FM221500 VRB03KT P6SM BKN060
     FM221700 31011KT P6SM BKN070
     FM230000 32008KT P6SM SCT250=

USA.gov is the U.S. government's official web portal to all federal, state and local government web resources and services.